sensor_id;sensor_type;location;lat;lon;timestamp;temperature;humidity
69546;SHT31;56766;52.260;20.746;2023-03-14T00:00:10;8.60;78.72
69546;SHT31;56766;52.260;20.746;2023-03-14T00:02:59;8.65;78.62
69546;SHT31;56766;52.260;20.746;2023-03-14T00:05:26;8.64;78.58
69546;SHT31;56766;52.260;20.746;2023-03-14T00:07:53;8.61;78.57
69546;SHT31;56766;52.260;20.746;2023-03-14T00:10:20;8.56;78.44
69546;SHT31;56766;52.260;20.746;2023-03-14T00:12:47;8.54;78.49
69546;SHT31;56766;52.260;20.746;2023-03-14T00:15:13;8.49;78.49
69546;SHT31;56766;52.260;20.746;2023-03-14T00:17:42;8.46;78.39
69546;SHT31;56766;52.260;20.746;2023-03-14T00:20:10;8.43;78.40
69546;SHT31;56766;52.260;20.746;2023-03-14T00:22:38;8.41;78.32
69546;SHT31;56766;52.260;20.746;2023-03-14T00:25:08;8.40;78.31
69546;SHT31;56766;52.260;20.746;2023-03-14T00:27:36;8.40;78.19
69546;SHT31;56766;52.260;20.746;2023-03-14T00:30:05;8.42;78.11
69546;SHT31;56766;52.260;20.746;2023-03-14T00:32:34;8.46;78.04
69546;SHT31;56766;52.260;20.746;2023-03-14T00:35:01;8.49;78.03
69546;SHT31;56766;52.260;20.746;2023-03-14T00:37:29;8.51;78.00
69546;SHT31;56766;52.260;20.746;2023-03-14T00:39:56;8.53;77.92
69546;SHT31;56766;52.260;20.746;2023-03-14T00:42:23;8.56;77.99
69546;SHT31;56766;52.260;20.746;2023-03-14T00:44:50;8.56;77.96
69546;SHT31;56766;52.260;20.746;2023-03-14T00:47:17;8.56;77.84
69546;SHT31;56766;52.260;20.746;2023-03-14T00:49:43;8.56;77.73
69546;SHT31;56766;52.260;20.746;2023-03-14T00:52:10;8.55;77.74
69546;SHT31;56766;52.260;20.746;2023-03-14T00:54:37;8.50;77.68
69546;SHT31;56766;52.260;20.746;2023-03-14T00:57:03;8.45;77.62
69546;SHT31;56766;52.260;20.746;2023-03-14T00:59:30;8.40;77.59
69546;SHT31;56766;52.260;20.746;2023-03-14T01:01:56;8.37;77.46
69546;SHT31;56766;52.260;20.746;2023-03-14T01:04:23;8.36;77.44
69546;SHT31;56766;52.260;20.746;2023-03-14T01:06:50;8.31;77.62
69546;SHT31;56766;52.260;20.746;2023-03-14T01:09:16;8.24;77.64
69546;SHT31;56766;52.260;20.746;2023-03-14T01:11:44;8.23;77.47
69546;SHT31;56766;52.260;20.746;2023-03-14T01:14:13;8.26;77.09
69546;SHT31;56766;52.260;20.746;2023-03-14T01:16:40;8.27;77.13
69546;SHT31;56766;52.260;20.746;2023-03-14T01:19:07;8.25;77.21
69546;SHT31;56766;52.260;20.746;2023-03-14T01:21:35;8.20;77.30
69546;SHT31;56766;52.260;20.746;2023-03-14T01:24:05;8.14;77.33
69546;SHT31;56766;52.260;20.746;2023-03-14T01:26:34;8.10;77.37
69546;SHT31;56766;52.260;20.746;2023-03-14T01:29:02;8.06;77.48
69546;SHT31;56766;52.260;20.746;2023-03-14T01:31:30;8.00;77.56
69546;SHT31;56766;52.260;20.746;2023-03-14T01:33:56;7.95;77.61
69546;SHT31;56766;52.260;20.746;2023-03-14T01:36:23;7.91;77.69
69546;SHT31;56766;52.260;20.746;2023-03-14T01:38:50;7.86;77.82
69546;SHT31;56766;52.260;20.746;2023-03-14T01:41:21;7.81;77.89
69546;SHT31;56766;52.260;20.746;2023-03-14T01:43:50;7.77;77.93
69546;SHT31;56766;52.260;20.746;2023-03-14T01:46:40;7.73;77.99
69546;SHT31;56766;52.260;20.746;2023-03-14T01:49:21;7.68;78.06
69546;SHT31;56766;52.260;20.746;2023-03-14T01:52:16;7.66;78.03
69546;SHT31;56766;52.260;20.746;2023-03-14T01:54:53;7.64;78.00
69546;SHT31;56766;52.260;20.746;2023-03-14T01:57:37;7.65;77.90
69546;SHT31;56766;52.260;20.746;2023-03-14T02:00:14;7.64;77.93
69546;SHT31;56766;52.260;20.746;2023-03-14T02:03:07;7.61;77.98
69546;SHT31;56766;52.260;20.746;2023-03-14T02:05:40;7.58;77.95
69546;SHT31;56766;52.260;20.746;2023-03-14T02:08:12;7.61;77.65
69546;SHT31;56766;52.260;20.746;2023-03-14T02:10:48;7.64;77.61
69546;SHT31;56766;52.260;20.746;2023-03-14T02:13:19;7.66;77.54
69546;SHT31;56766;52.260;20.746;2023-03-14T02:15:48;7.68;77.35
69546;SHT31;56766;52.260;20.746;2023-03-14T02:18:16;7.69;77.50
69546;SHT31;56766;52.260;20.746;2023-03-14T02:21:01;7.65;77.56
69546;SHT31;56766;52.260;20.746;2023-03-14T02:23:57;7.64;77.42
69546;SHT31;56766;52.260;20.746;2023-03-14T02:26:43;7.66;77.34
69546;SHT31;56766;52.260;20.746;2023-03-14T02:29:33;7.61;77.53
69546;SHT31;56766;52.260;20.746;2023-03-14T02:32:04;7.57;77.49
69546;SHT31;56766;52.260;20.746;2023-03-14T02:34:31;7.54;77.52
69546;SHT31;56766;52.260;20.746;2023-03-14T02:37:00;7.51;77.60
69546;SHT31;56766;52.260;20.746;2023-03-14T02:39:37;7.47;77.72
69546;SHT31;56766;52.260;20.746;2023-03-14T02:42:06;7.41;77.86
69546;SHT31;56766;52.260;20.746;2023-03-14T02:44:32;7.34;77.86
69546;SHT31;56766;52.260;20.746;2023-03-14T02:46:59;7.28;77.94
69546;SHT31;56766;52.260;20.746;2023-03-14T02:49:29;7.23;77.94
69546;SHT31;56766;52.260;20.746;2023-03-14T02:51:59;7.20;77.99
69546;SHT31;56766;52.260;20.746;2023-03-14T02:54:26;7.17;78.17
69546;SHT31;56766;52.260;20.746;2023-03-14T02:56:52;7.12;78.15
69546;SHT31;56766;52.260;20.746;2023-03-14T02:59:19;7.08;78.26
69546;SHT31;56766;52.260;20.746;2023-03-14T03:01:45;7.03;78.36
69546;SHT31;56766;52.260;20.746;2023-03-14T03:04:12;7.01;78.48
69546;SHT31;56766;52.260;20.746;2023-03-14T03:06:39;6.97;78.51
69546;SHT31;56766;52.260;20.746;2023-03-14T03:09:05;6.92;78.48
69546;SHT31;56766;52.260;20.746;2023-03-14T03:11:32;6.88;78.43
69546;SHT31;56766;52.260;20.746;2023-03-14T03:13:59;6.82;78.52
69546;SHT31;56766;52.260;20.746;2023-03-14T03:16:25;6.75;78.65
69546;SHT31;56766;52.260;20.746;2023-03-14T03:18:52;6.67;78.86
69546;SHT31;56766;52.260;20.746;2023-03-14T03:21:19;6.61;79.01
69546;SHT31;56766;52.260;20.746;2023-03-14T03:23:50;6.53;79.03
69546;SHT31;56766;52.260;20.746;2023-03-14T03:26:17;6.48;79.15
69546;SHT31;56766;52.260;20.746;2023-03-14T03:28:43;6.42;79.27
69546;SHT31;56766;52.260;20.746;2023-03-14T03:31:11;6.37;79.37
69546;SHT31;56766;52.260;20.746;2023-03-14T03:33:39;6.32;79.48
69546;SHT31;56766;52.260;20.746;2023-03-14T03:36:06;6.28;79.49
69546;SHT31;56766;52.260;20.746;2023-03-14T03:38:33;6.22;79.58
69546;SHT31;56766;52.260;20.746;2023-03-14T03:41:05;6.15;79.76
69546;SHT31;56766;52.260;20.746;2023-03-14T03:43:32;6.07;79.81
69546;SHT31;56766;52.260;20.746;2023-03-14T03:46:06;6.00;79.96
69546;SHT31;56766;52.260;20.746;2023-03-14T03:48:35;5.97;80.08
69546;SHT31;56766;52.260;20.746;2023-03-14T03:51:02;5.93;80.15
69546;SHT31;56766;52.260;20.746;2023-03-14T03:53:29;5.91;80.20
69546;SHT31;56766;52.260;20.746;2023-03-14T03:55:56;5.88;80.28
69546;SHT31;56766;52.260;20.746;2023-03-14T03:58:22;5.84;80.31
69546;SHT31;56766;52.260;20.746;2023-03-14T04:00:49;5.82;80.39
69546;SHT31;56766;52.260;20.746;2023-03-14T04:03:16;5.77;80.40
69546;SHT31;56766;52.260;20.746;2023-03-14T04:05:42;5.73;80.47
69546;SHT31;56766;52.260;20.746;2023-03-14T04:08:09;5.69;80.60
69546;SHT31;56766;52.260;20.746;2023-03-14T04:10:36;5.65;80.69
69546;SHT31;56766;52.260;20.746;2023-03-14T04:13:03;5.61;80.78
69546;SHT31;56766;52.260;20.746;2023-03-14T04:15:29;5.58;80.87
69546;SHT31;56766;52.260;20.746;2023-03-14T04:17:58;5.56;80.97
69546;SHT31;56766;52.260;20.746;2023-03-14T04:20:25;5.55;81.04
69546;SHT31;56766;52.260;20.746;2023-03-14T04:22:52;5.54;81.10
69546;SHT31;56766;52.260;20.746;2023-03-14T04:25:19;5.53;81.15
69546;SHT31;56766;52.260;20.746;2023-03-14T04:27:47;5.51;81.23
69546;SHT31;56766;52.260;20.746;2023-03-14T04:30:14;5.52;81.29
69546;SHT31;56766;52.260;20.746;2023-03-14T04:32:40;5.57;81.32
69546;SHT31;56766;52.260;20.746;2023-03-14T04:35:07;5.66;81.21
69546;SHT31;56766;52.260;20.746;2023-03-14T04:37:34;5.74;81.11
69546;SHT31;56766;52.260;20.746;2023-03-14T04:40:01;5.84;81.00
69546;SHT31;56766;52.260;20.746;2023-03-14T04:42:28;5.91;80.89
69546;SHT31;56766;52.260;20.746;2023-03-14T04:44:54;5.98;80.80
69546;SHT31;56766;52.260;20.746;2023-03-14T04:47:21;6.06;80.72
69546;SHT31;56766;52.260;20.746;2023-03-14T04:49:47;6.13;80.65
69546;SHT31;56766;52.260;20.746;2023-03-14T04:52:14;6.22;80.55
69546;SHT31;56766;52.260;20.746;2023-03-14T04:54:41;6.30;80.47
69546;SHT31;56766;52.260;20.746;2023-03-14T04:57:07;6.39;80.38
69546;SHT31;56766;52.260;20.746;2023-03-14T04:59:34;6.45;80.42
69546;SHT31;56766;52.260;20.746;2023-03-14T05:02:01;6.49;80.42
69546;SHT31;56766;52.260;20.746;2023-03-14T05:04:27;6.55;80.37
69546;SHT31;56766;52.260;20.746;2023-03-14T05:06:55;6.58;80.21
69546;SHT31;56766;52.260;20.746;2023-03-14T05:09:22;6.62;80.24
69546;SHT31;56766;52.260;20.746;2023-03-14T05:11:49;6.65;80.22
69546;SHT31;56766;52.260;20.746;2023-03-14T05:14:15;6.67;80.14
69546;SHT31;56766;52.260;20.746;2023-03-14T05:16:42;6.73;80.04
69546;SHT31;56766;52.260;20.746;2023-03-14T05:19:10;6.77;79.93
69546;SHT31;56766;52.260;20.746;2023-03-14T05:21:37;6.82;79.90
69546;SHT31;56766;52.260;20.746;2023-03-14T05:24:04;6.86;79.80
69546;SHT31;56766;52.260;20.746;2023-03-14T05:26:31;6.89;79.86
69546;SHT31;56766;52.260;20.746;2023-03-14T05:28:57;6.94;79.71
69546;SHT31;56766;52.260;20.746;2023-03-14T05:31:24;6.99;79.60
69546;SHT31;56766;52.260;20.746;2023-03-14T05:33:51;7.04;79.58
69546;SHT31;56766;52.260;20.746;2023-03-14T05:36:17;7.08;79.47
69546;SHT31;56766;52.260;20.746;2023-03-14T05:38:44;7.14;79.50
69546;SHT31;56766;52.260;20.746;2023-03-14T05:41:11;7.21;79.44
69546;SHT31;56766;52.260;20.746;2023-03-14T05:43:37;7.32;79.33
69546;SHT31;56766;52.260;20.746;2023-03-14T05:46:04;7.42;79.11
69546;SHT31;56766;52.260;20.746;2023-03-14T05:48:31;7.52;78.90
69546;SHT31;56766;52.260;20.746;2023-03-14T05:50:58;7.64;78.84
69546;SHT31;56766;52.260;20.746;2023-03-14T05:53:26;7.78;78.70
69546;SHT31;56766;52.260;20.746;2023-03-14T05:55:53;7.94;78.34
69546;SHT31;56766;52.260;20.746;2023-03-14T05:58:21;8.13;77.98
69546;SHT31;56766;52.260;20.746;2023-03-14T06:00:50;8.31;77.86
69546;SHT31;56766;52.260;20.746;2023-03-14T06:03:17;8.45;77.52
69546;SHT31;56766;52.260;20.746;2023-03-14T06:05:44;8.51;77.28
69546;SHT31;56766;52.260;20.746;2023-03-14T06:08:10;8.55;76.86
69546;SHT31;56766;52.260;20.746;2023-03-14T06:10:37;8.53;76.81
69546;SHT31;56766;52.260;20.746;2023-03-14T06:13:04;8.48;76.84
69546;SHT31;56766;52.260;20.746;2023-03-14T06:15:30;8.44;76.69
69546;SHT31;56766;52.260;20.746;2023-03-14T06:17:59;8.43;76.63
69546;SHT31;56766;52.260;20.746;2023-03-14T06:20:25;8.48;76.81
69546;SHT31;56766;52.260;20.746;2023-03-14T06:22:52;8.47;76.70
69546;SHT31;56766;52.260;20.746;2023-03-14T06:25:19;8.46;76.69
69546;SHT31;56766;52.260;20.746;2023-03-14T06:27:46;8.51;76.71
69546;SHT31;56766;52.260;20.746;2023-03-14T06:30:13;8.63;76.46
69546;SHT31;56766;52.260;20.746;2023-03-14T06:32:39;8.80;76.54
69546;SHT31;56766;52.260;20.746;2023-03-14T06:35:06;9.00;76.34
69546;SHT31;56766;52.260;20.746;2023-03-14T06:37:34;9.23;76.25
69546;SHT31;56766;52.260;20.746;2023-03-14T06:40:01;9.49;75.84
69546;SHT31;56766;52.260;20.746;2023-03-14T06:42:28;9.79;75.63
69546;SHT31;56766;52.260;20.746;2023-03-14T06:44:55;10.08;74.90
69546;SHT31;56766;52.260;20.746;2023-03-14T06:47:21;10.36;74.92
69546;SHT31;56766;52.260;20.746;2023-03-14T06:49:48;10.53;74.31
69546;SHT31;56766;52.260;20.746;2023-03-14T06:52:15;10.68;74.05
69546;SHT31;56766;52.260;20.746;2023-03-14T06:54:42;10.83;74.10
69546;SHT31;56766;52.260;20.746;2023-03-14T06:57:08;10.98;73.91
69546;SHT31;56766;52.260;20.746;2023-03-14T06:59:35;11.08;73.35
69546;SHT31;56766;52.260;20.746;2023-03-14T07:02:02;11.19;73.11
69546;SHT31;56766;52.260;20.746;2023-03-14T07:04:28;11.36;73.08
69546;SHT31;56766;52.260;20.746;2023-03-14T07:06:55;11.57;72.99
69546;SHT31;56766;52.260;20.746;2023-03-14T07:09:22;11.74;72.71
69546;SHT31;56766;52.260;20.746;2023-03-14T07:11:48;11.84;72.31
69546;SHT31;56766;52.260;20.746;2023-03-14T07:14:15;11.91;72.03
69546;SHT31;56766;52.260;20.746;2023-03-14T07:16:42;12.02;71.91
69546;SHT31;56766;52.260;20.746;2023-03-14T07:19:08;12.17;71.70
69546;SHT31;56766;52.260;20.746;2023-03-14T07:21:35;12.35;71.57
69546;SHT31;56766;52.260;20.746;2023-03-14T07:24:02;12.48;71.22
69546;SHT31;56766;52.260;20.746;2023-03-14T07:26:29;12.63;71.33
69546;SHT31;56766;52.260;20.746;2023-03-14T07:28:55;12.83;70.63
69546;SHT31;56766;52.260;20.746;2023-03-14T07:31:22;13.06;70.59
69546;SHT31;56766;52.260;20.746;2023-03-14T07:33:49;13.31;70.15
69546;SHT31;56766;52.260;20.746;2023-03-14T07:36:16;13.53;69.29
69546;SHT31;56766;52.260;20.746;2023-03-14T07:38:43;13.65;69.23
69546;SHT31;56766;52.260;20.746;2023-03-14T07:41:10;13.69;69.31
69546;SHT31;56766;52.260;20.746;2023-03-14T07:43:37;13.67;68.37
69546;SHT31;56766;52.260;20.746;2023-03-14T07:46:04;13.67;68.64
69546;SHT31;56766;52.260;20.746;2023-03-14T07:48:30;13.79;68.21
69546;SHT31;56766;52.260;20.746;2023-03-14T07:50:57;14.02;67.68
69546;SHT31;56766;52.260;20.746;2023-03-14T07:53:25;14.15;67.13
69546;SHT31;56766;52.260;20.746;2023-03-14T07:55:53;14.26;66.77
69546;SHT31;56766;52.260;20.746;2023-03-14T07:58:21;14.37;66.54
69546;SHT31;56766;52.260;20.746;2023-03-14T08:00:50;14.53;66.62
69546;SHT31;56766;52.260;20.746;2023-03-14T08:03:17;14.64;66.57
69546;SHT31;56766;52.260;20.746;2023-03-14T08:05:48;14.70;65.90
69546;SHT31;56766;52.260;20.746;2023-03-14T08:08:17;14.68;65.80
69546;SHT31;56766;52.260;20.746;2023-03-14T08:10:45;14.67;65.33
69546;SHT31;56766;52.260;20.746;2023-03-14T08:13:13;14.64;65.03
69546;SHT31;56766;52.260;20.746;2023-03-14T08:15:39;14.58;64.67
69546;SHT31;56766;52.260;20.746;2023-03-14T08:18:06;14.54;65.34
69546;SHT31;56766;52.260;20.746;2023-03-14T08:20:35;14.51;65.57
69546;SHT31;56766;52.260;20.746;2023-03-14T08:23:02;14.48;65.59
69546;SHT31;56766;52.260;20.746;2023-03-14T08:25:29;14.42;65.28
69546;SHT31;56766;52.260;20.746;2023-03-14T08:27:56;14.35;65.13
69546;SHT31;56766;52.260;20.746;2023-03-14T08:30:23;14.29;65.24
69546;SHT31;56766;52.260;20.746;2023-03-14T08:32:50;14.29;65.60
69546;SHT31;56766;52.260;20.746;2023-03-14T08:35:17;14.36;65.48
69546;SHT31;56766;52.260;20.746;2023-03-14T08:37:43;14.43;65.17
69546;SHT31;56766;52.260;20.746;2023-03-14T08:40:10;14.52;65.12
69546;SHT31;56766;52.260;20.746;2023-03-14T08:42:39;14.63;64.70
69546;SHT31;56766;52.260;20.746;2023-03-14T08:45:08;14.75;63.88
69546;SHT31;56766;52.260;20.746;2023-03-14T08:47:37;14.77;63.29
69546;SHT31;56766;52.260;20.746;2023-03-14T08:50:05;14.76;63.33
69546;SHT31;56766;52.260;20.746;2023-03-14T08:52:33;14.78;63.80
69546;SHT31;56766;52.260;20.746;2023-03-14T08:54:59;14.77;63.67
69546;SHT31;56766;52.260;20.746;2023-03-14T08:57:26;14.77;63.49
69546;SHT31;56766;52.260;20.746;2023-03-14T08:59:55;14.85;63.93
69546;SHT31;56766;52.260;20.746;2023-03-14T09:02:23;15.01;63.65
69546;SHT31;56766;52.260;20.746;2023-03-14T09:04:52;15.18;63.64
69546;SHT31;56766;52.260;20.746;2023-03-14T09:07:19;15.29;62.80
69546;SHT31;56766;52.260;20.746;2023-03-14T09:09:46;15.31;62.64
69546;SHT31;56766;52.260;20.746;2023-03-14T09:12:13;15.26;62.49
69546;SHT31;56766;52.260;20.746;2023-03-14T09:14:40;15.21;62.43
69546;SHT31;56766;52.260;20.746;2023-03-14T09:17:07;15.20;62.59
69546;SHT31;56766;52.260;20.746;2023-03-14T09:19:34;15.16;62.22
69546;SHT31;56766;52.260;20.746;2023-03-14T09:22:01;15.12;62.37
69546;SHT31;56766;52.260;20.746;2023-03-14T09:24:28;15.10;62.92
69546;SHT31;56766;52.260;20.746;2023-03-14T09:26:56;15.09;62.69
69546;SHT31;56766;52.260;20.746;2023-03-14T09:29:23;15.06;62.11
69546;SHT31;56766;52.260;20.746;2023-03-14T09:31:51;15.03;62.27
69546;SHT31;56766;52.260;20.746;2023-03-14T09:34:18;15.00;63.11
69546;SHT31;56766;52.260;20.746;2023-03-14T09:36:45;15.01;63.53
69546;SHT31;56766;52.260;20.746;2023-03-14T09:39:12;14.98;62.76
69546;SHT31;56766;52.260;20.746;2023-03-14T09:41:49;14.98;63.26
69546;SHT31;56766;52.260;20.746;2023-03-14T09:44:24;15.01;63.22
69546;SHT31;56766;52.260;20.746;2023-03-14T09:47:01;15.05;63.01
69546;SHT31;56766;52.260;20.746;2023-03-14T09:49:34;15.12;62.78
69546;SHT31;56766;52.260;20.746;2023-03-14T09:52:13;15.26;62.94
69546;SHT31;56766;52.260;20.746;2023-03-14T09:54:50;15.40;63.26
69546;SHT31;56766;52.260;20.746;2023-03-14T09:57:24;15.59;62.93
69546;SHT31;56766;52.260;20.746;2023-03-14T09:59:56;15.78;62.08
69546;SHT31;56766;52.260;20.746;2023-03-14T10:02:35;15.92;61.75
69546;SHT31;56766;52.260;20.746;2023-03-14T10:05:13;16.02;61.48
69546;SHT31;56766;52.260;20.746;2023-03-14T10:07:42;16.15;61.20
69546;SHT31;56766;52.260;20.746;2023-03-14T10:10:27;16.27;60.80
69546;SHT31;56766;52.260;20.746;2023-03-14T10:12:58;16.39;60.91
69546;SHT31;56766;52.260;20.746;2023-03-14T10:15:33;16.42;60.58
69546;SHT31;56766;52.260;20.746;2023-03-14T10:18:02;16.34;60.08
69546;SHT31;56766;52.260;20.746;2023-03-14T10:20:39;16.28;60.49
69546;SHT31;56766;52.260;20.746;2023-03-14T10:26:00;16.59;61.36
69546;SHT31;56766;52.260;20.746;2023-03-14T10:28:34;16.76;60.96
69546;SHT31;56766;52.260;20.746;2023-03-14T10:31:10;16.80;60.03
69546;SHT31;56766;52.260;20.746;2023-03-14T10:33:38;16.90;59.88
69546;SHT31;56766;52.260;20.746;2023-03-14T10:36:21;17.09;59.39
69546;SHT31;56766;52.260;20.746;2023-03-14T10:39:15;17.38;59.17
69546;SHT31;56766;52.260;20.746;2023-03-14T10:41:53;17.69;59.08
69546;SHT31;56766;52.260;20.746;2023-03-14T10:44:25;17.83;57.98
69546;SHT31;56766;52.260;20.746;2023-03-14T10:47:00;17.91;57.63
69546;SHT31;56766;52.260;20.746;2023-03-14T10:49:35;17.94;56.48
69546;SHT31;56766;52.260;20.746;2023-03-14T10:52:26;17.80;56.17
69546;SHT31;56766;52.260;20.746;2023-03-14T10:54:58;17.55;56.13
69546;SHT31;56766;52.260;20.746;2023-03-14T10:57:42;17.28;56.77
69546;SHT31;56766;52.260;20.746;2023-03-14T11:00:18;16.97;56.97
69546;SHT31;56766;52.260;20.746;2023-03-14T11:05:54;16.57;58.25
69546;SHT31;56766;52.260;20.746;2023-03-14T11:11:29;16.63;59.08
69546;SHT31;56766;52.260;20.746;2023-03-14T11:14:12;16.51;59.32
69546;SHT31;56766;52.260;20.746;2023-03-14T11:17:00;16.33;58.86
69546;SHT31;56766;52.260;20.746;2023-03-14T11:28:35;16.03;60.41
69546;SHT31;56766;52.260;20.746;2023-03-14T11:34:16;16.31;60.40
69546;SHT31;56766;52.260;20.746;2023-03-14T11:37:00;16.44;60.28
69546;SHT31;56766;52.260;20.746;2023-03-14T11:39:41;16.61;60.26
69546;SHT31;56766;52.260;20.746;2023-03-14T11:42:17;16.78;60.04
69546;SHT31;56766;52.260;20.746;2023-03-14T11:44:48;16.91;59.70
69546;SHT31;56766;52.260;20.746;2023-03-14T11:47:26;16.87;59.31
69546;SHT31;56766;52.260;20.746;2023-03-14T11:50:16;16.74;59.44
69546;SHT31;56766;52.260;20.746;2023-03-14T11:52:54;16.63;59.55
69546;SHT31;56766;52.260;20.746;2023-03-14T11:55:32;16.56;59.54
69546;SHT31;56766;52.260;20.746;2023-03-14T11:58:23;16.43;58.50
69546;SHT31;56766;52.260;20.746;2023-03-14T12:00:55;16.27;59.00
69546;SHT31;56766;52.260;20.746;2023-03-14T12:06:26;16.14;59.28
69546;SHT31;56766;52.260;20.746;2023-03-14T12:09:00;16.10;59.31
69546;SHT31;56766;52.260;20.746;2023-03-14T12:17:03;15.63;59.95
69546;SHT31;56766;52.260;20.746;2023-03-14T12:19:45;15.40;60.41
69546;SHT31;56766;52.260;20.746;2023-03-14T12:22:30;15.18;60.70
69546;SHT31;56766;52.260;20.746;2023-03-14T12:25:13;14.90;61.03
69546;SHT31;56766;52.260;20.746;2023-03-14T12:35:48;13.98;64.12
69546;SHT31;56766;52.260;20.746;2023-03-14T12:38:43;13.82;65.18
69546;SHT31;56766;52.260;20.746;2023-03-14T12:41:38;13.71;66.41
69546;SHT31;56766;52.260;20.746;2023-03-14T12:44:44;13.59;66.98
69546;SHT31;56766;52.260;20.746;2023-03-14T12:49:52;13.30;68.14
69546;SHT31;56766;52.260;20.746;2023-03-14T12:55:36;12.99;69.20
69546;SHT31;56766;52.260;20.746;2023-03-14T12:58:35;12.88;69.75
69546;SHT31;56766;52.260;20.746;2023-03-14T13:01:19;12.81;70.18
69546;SHT31;56766;52.260;20.746;2023-03-14T13:03:55;12.76;70.64
69546;SHT31;56766;52.260;20.746;2023-03-14T13:06:57;12.76;71.07
69546;SHT31;56766;52.260;20.746;2023-03-14T13:12:14;12.77;72.00
69546;SHT31;56766;52.260;20.746;2023-03-14T13:14:48;12.81;72.29
69546;SHT31;56766;52.260;20.746;2023-03-14T13:17:24;12.81;72.37
69546;SHT31;56766;52.260;20.746;2023-03-14T13:19:57;12.76;72.92
69546;SHT31;56766;52.260;20.746;2023-03-14T13:22:33;12.74;73.17
69546;SHT31;56766;52.260;20.746;2023-03-14T13:25:06;12.66;73.44
69546;SHT31;56766;52.260;20.746;2023-03-14T13:27:37;12.57;73.68
69546;SHT31;56766;52.260;20.746;2023-03-14T13:32:52;12.47;73.62
69546;SHT31;56766;52.260;20.746;2023-03-14T13:35:27;12.47;73.76
69546;SHT31;56766;52.260;20.746;2023-03-14T13:37:59;12.52;73.88
69546;SHT31;56766;52.260;20.746;2023-03-14T13:40:33;12.55;74.07
69546;SHT31;56766;52.260;20.746;2023-03-14T13:43:05;12.61;74.29
69546;SHT31;56766;52.260;20.746;2023-03-14T13:45:47;12.67;74.72
69546;SHT31;56766;52.260;20.746;2023-03-14T13:48:26;12.72;74.80
69546;SHT31;56766;52.260;20.746;2023-03-14T13:51:00;12.74;74.85
69546;SHT31;56766;52.260;20.746;2023-03-14T13:53:31;12.70;75.00
69546;SHT31;56766;52.260;20.746;2023-03-14T13:56:02;12.67;75.20
69546;SHT31;56766;52.260;20.746;2023-03-14T13:58:31;12.60;75.25
69546;SHT31;56766;52.260;20.746;2023-03-14T14:01:06;12.47;75.37
69546;SHT31;56766;52.260;20.746;2023-03-14T14:03:42;12.34;75.76
69546;SHT31;56766;52.260;20.746;2023-03-14T14:09:02;12.14;76.31
69546;SHT31;56766;52.260;20.746;2023-03-14T14:17:56;11.82;77.22
69546;SHT31;56766;52.260;20.746;2023-03-14T14:20:34;11.78;77.54
69546;SHT31;56766;52.260;20.746;2023-03-14T14:23:15;11.77;77.74
69546;SHT31;56766;52.260;20.746;2023-03-14T14:25:52;11.74;78.01
69546;SHT31;56766;52.260;20.746;2023-03-14T14:30:46;11.69;78.51
69546;SHT31;56766;52.260;20.746;2023-03-14T14:35:52;11.70;78.69
69546;SHT31;56766;52.260;20.746;2023-03-14T14:38:25;11.69;78.82
69546;SHT31;56766;52.260;20.746;2023-03-14T14:41:00;11.70;78.93
69546;SHT31;56766;52.260;20.746;2023-03-14T14:43:34;11.68;79.05
69546;SHT31;56766;52.260;20.746;2023-03-14T14:46:07;11.67;79.08
69546;SHT31;56766;52.260;20.746;2023-03-14T14:48:37;11.67;79.12
69546;SHT31;56766;52.260;20.746;2023-03-14T14:51:07;11.69;79.20
69546;SHT31;56766;52.260;20.746;2023-03-14T14:53:39;11.69;79.28
69546;SHT31;56766;52.260;20.746;2023-03-14T14:56:26;11.70;79.24
69546;SHT31;56766;52.260;20.746;2023-03-14T14:59:01;11.68;79.20
69546;SHT31;56766;52.260;20.746;2023-03-14T15:01:37;11.64;79.19
69546;SHT31;56766;52.260;20.746;2023-03-14T15:04:12;11.59;79.24
69546;SHT31;56766;52.260;20.746;2023-03-14T15:06:44;11.55;79.30
69546;SHT31;56766;52.260;20.746;2023-03-14T15:09:14;11.51;79.41
69546;SHT31;56766;52.260;20.746;2023-03-14T15:11:44;11.50;79.34
69546;SHT31;56766;52.260;20.746;2023-03-14T15:14:11;11.44;79.44
69546;SHT31;56766;52.260;20.746;2023-03-14T15:16:38;11.39;79.60
69546;SHT31;56766;52.260;20.746;2023-03-14T15:19:21;11.34;79.71
69546;SHT31;56766;52.260;20.746;2023-03-14T15:21:53;11.31;79.79
69546;SHT31;56766;52.260;20.746;2023-03-14T15:24:21;11.28;79.90
69546;SHT31;56766;52.260;20.746;2023-03-14T15:26:48;11.24;79.95
69546;SHT31;56766;52.260;20.746;2023-03-14T15:29:15;11.16;80.05
69546;SHT31;56766;52.260;20.746;2023-03-14T15:31:42;11.10;80.17
69546;SHT31;56766;52.260;20.746;2023-03-14T15:34:12;11.02;80.26
69546;SHT31;56766;52.260;20.746;2023-03-14T15:36:39;10.96;80.39
69546;SHT31;56766;52.260;20.746;2023-03-14T15:39:06;10.93;80.50
69546;SHT31;56766;52.260;20.746;2023-03-14T15:41:34;10.93;80.60
69546;SHT31;56766;52.260;20.746;2023-03-14T15:44:00;10.89;80.65
69546;SHT31;56766;52.260;20.746;2023-03-14T15:46:27;10.85;80.73
69546;SHT31;56766;52.260;20.746;2023-03-14T15:48:54;10.82;80.81
69546;SHT31;56766;52.260;20.746;2023-03-14T15:51:21;10.76;80.88
69546;SHT31;56766;52.260;20.746;2023-03-14T15:53:48;10.73;80.96
69546;SHT31;56766;52.260;20.746;2023-03-14T15:56:17;10.68;81.02
69546;SHT31;56766;52.260;20.746;2023-03-14T15:58:46;10.64;81.12
69546;SHT31;56766;52.260;20.746;2023-03-14T16:01:15;10.60;81.26
69546;SHT31;56766;52.260;20.746;2023-03-14T16:03:45;10.60;81.30
69546;SHT31;56766;52.260;20.746;2023-03-14T16:06:14;10.59;81.30
69546;SHT31;56766;52.260;20.746;2023-03-14T16:08:41;10.59;81.34
69546;SHT31;56766;52.260;20.746;2023-03-14T16:11:09;10.59;81.30
69546;SHT31;56766;52.260;20.746;2023-03-14T16:13:38;10.56;81.32
69546;SHT31;56766;52.260;20.746;2023-03-14T16:16:06;10.53;81.37
69546;SHT31;56766;52.260;20.746;2023-03-14T16:18:36;10.49;81.41
69546;SHT31;56766;52.260;20.746;2023-03-14T16:21:06;10.46;81.50
69546;SHT31;56766;52.260;20.746;2023-03-14T16:23:36;10.41;81.60
69546;SHT31;56766;52.260;20.746;2023-03-14T16:26:06;10.39;81.69
69546;SHT31;56766;52.260;20.746;2023-03-14T16:28:36;10.36;81.75
69546;SHT31;56766;52.260;20.746;2023-03-14T16:31:09;10.32;81.86
69546;SHT31;56766;52.260;20.746;2023-03-14T16:33:39;10.30;81.93
69546;SHT31;56766;52.260;20.746;2023-03-14T16:36:08;10.26;82.00
69546;SHT31;56766;52.260;20.746;2023-03-14T16:38:39;10.22;82.09
69546;SHT31;56766;52.260;20.746;2023-03-14T16:41:19;10.19;82.18
69546;SHT31;56766;52.260;20.746;2023-03-14T16:43:46;10.15;82.23
69546;SHT31;56766;52.260;20.746;2023-03-14T16:46:18;10.12;82.30